Accueil
METAR-TAF:

METAR-TAF

Aéroports :

Aéroport de Magenta

Nouméa, Nouvelle-Calédonie

latitude: 22-15-30S, longitude: 166-28-22E, altitude: 3 m

METAR: absent

Heure: 10:14 (23:14 UTC)

Prévision

Le bulletin a été fait il y a 6 heures et 14 minutes, à 17:00 UTC
Prévision valable du 23 à 18 UTC au 24 à 18 UTC
Vent 15 kt de est
Visibilité 10 km ou plus
Quelques nuages à une hauteur de 4000 ft
Probabilité 40% :
Temporairement
du 24 à 00 UTC au 24 à 06 UTC
Visibilité: 4000 m
Quelques nuages à une hauteur de 3000 ft, Cumulus congestus.
averses de pluie

TAF: NWWM 231700Z 2318/2418 09015KT 9999 FEW040 PROB40 TEMPO 2400/2406 4000 SHRA FEW030TCU

Observations et prévisions météorologiques de plus de 4000 aéroports (messages METAR et TAF).

Les stations disponibles sont représentées par des disques jaunes et rouges sur la carte.

Passer la souris dessus pour voir le nom de la station.

Cliquer dessus pour voir les observations et prévisions météorologiques.

Pour changer de carte: cliquez sur les boutons verts avec une croix noire pour zoomer, sur le bouton vert avec un tiret pour effectuer un zoom arrière, ou sur les flèches vertes pour les cartes adjacentes.


METAR-TAF: